Time;durP1;ratioP1;P1;durP2;ratioP2;P2;SDS_P1;SDS_P2;PMS_P1;PMS_P2;Temp;Humidity;BMP_temperature;BMP_pressure;BME280_temperature;BME280_humidity;BME280_pressure;Samples;Min_cycle;Max_cycle;Signal;HPM_P1;HPM_P2
2021/11/15 00:01:13;;;;;;;;;;;16.20;83.20;;;;;;4204441;28;20155;-69
2021/11/15 00:03:16;;;;;;;;;;;16.20;83.20;;;;;;4204685;28;19923;-71
2021/11/15 00:05:21;;;;;;;;;;;16.20;83.70;;;;;;4187328;28;19917;-70
2021/11/15 00:07:23;;;;;;;;;;;16.20;83.20;;;;;;4204205;28;19926;-70
2021/11/15 00:09:26;;;;;;;;;;;16.10;83.20;;;;;;4204592;28;19916;-70
2021/11/15 00:11:30;;;;;;;;;;;16.10;83.10;;;;;;4204660;28;19916;-69
2021/11/15 00:13:33;;;;;;;;;;;16.10;83.10;;;;;;4204073;28;19920;-70
2021/11/15 00:15:35;;;;;;;;;;;16.10;83.10;;;;;;4204446;28;19924;-70
2021/11/15 00:17:38;;;;;;;;;;;16.10;83.10;;;;;;4204349;28;19917;-69
2021/11/15 00:19:41;;;;;;;;;;;16.10;83.10;;;;;;4202246;28;19916;-69
2021/11/15 00:21:46;;;;;;;;;;;16.10;83.20;;;;;;4204206;28;20238;-70
2021/11/15 00:23:48;;;;;;;;;;;16.10;83.10;;;;;;4204206;28;19922;-70
2021/11/15 00:25:51;;;;;;;;;;;16.10;83.20;;;;;;4204484;28;19916;-70
2021/11/15 00:27:54;;;;;;;;;;;16.10;83.20;;;;;;4207379;28;19922;-72
2021/11/15 00:30:00;;;;;;;;;;;16.10;83.20;;;;;;4207861;28;19993;-70
2021/11/15 00:32:03;;;;;;;;;;;16.10;83.20;;;;;;4207379;28;20200;-71
2021/11/15 00:34:05;;;;;;;;;;;16.10;83.30;;;;;;4207119;28;19916;-71
2021/11/15 00:36:08;;;;;;;;;;;16.10;83.20;;;;;;4206717;28;19977;-69
2021/11/15 00:38:12;;;;;;;;;;;16.10;83.20;;;;;;4207427;28;20216;-70
2021/11/15 00:40:16;;;;;;;;;;;16.00;83.20;;;;;;4206229;28;19916;-70
2021/11/15 00:42:19;;;;;;;;;;;16.00;83.20;;;;;;4207302;28;19922;-70
2021/11/15 00:44:22;;;;;;;;;;;16.00;83.10;;;;;;4206754;28;19916;-70
2021/11/15 00:46:25;;;;;;;;;;;16.00;83.10;;;;;;4189749;28;20217;-70
2021/11/15 00:48:28;;;;;;;;;;;16.00;83.20;;;;;;4207059;28;19961;-70
2021/11/15 00:50:31;;;;;;;;;;;16.00;83.10;;;;;;4206750;28;19939;-68
2021/11/15 00:52:34;;;;;;;;;;;16.00;83.20;;;;;;4206838;28;20205;-70
2021/11/15 00:54:38;;;;;;;;;;;15.90;83.10;;;;;;4206811;28;19916;-70
2021/11/15 00:56:40;;;;;;;;;;;16.00;83.10;;;;;;4206545;28;20243;-69
2021/11/15 00:58:43;;;;;;;;;;;15.90;83.10;;;;;;4207079;28;20135;-70
2021/11/15 01:00:46;;;;;;;;;;;15.90;83.00;;;;;;4206821;28;19916;-71
2021/11/15 01:02:49;;;;;;;;;;;15.90;83.00;;;;;;4206626;28;19917;-71
2021/11/15 01:04:51;;;;;;;;;;;15.90;83.00;;;;;;4206421;28;19916;-70
2021/11/15 01:06:55;;;;;;;;;;;15.90;83.10;;;;;;4206879;28;19947;-70
2021/11/15 01:08:58;;;;;;;;;;;15.90;83.00;;;;;;4207044;28;19916;-70
2021/11/15 01:11:02;;;;;;;;;;;15.90;82.90;;;;;;4206330;28;19920;-70
2021/11/15 01:13:04;;;;;;;;;;;15.90;83.10;;;;;;4206788;28;19924;-69
2021/11/15 01:15:08;;;;;;;;;;;15.90;83.10;;;;;;4206874;28;20147;-69
2021/11/15 01:17:11;;;;;;;;;;;15.90;83.00;;;;;;4206671;28;19923;-70
2021/11/15 01:19:14;;;;;;;;;;;15.90;83.00;;;;;;4206869;28;20250;-70
2021/11/15 01:21:18;;;;;;;;;;;15.80;83.00;;;;;;4188904;28;19917;-70
2021/11/15 01:23:20;;;;;;;;;;;15.90;82.90;;;;;;4206301;28;19920;-70
2021/11/15 01:25:23;;;;;;;;;;;15.80;82.80;;;;;;4205509;28;19916;-70
2021/11/15 01:27:28;;;;;;;;;;;15.90;82.90;;;;;;4205288;28;19923;-72
2021/11/15 01:29:30;;;;;;;;;;;15.80;82.90;;;;;;4205929;28;19923;-70
2021/11/15 01:31:33;;;;;;;;;;;15.90;82.80;;;;;;4204900;28;19916;-70
2021/11/15 01:33:36;;;;;;;;;;;15.80;82.80;;;;;;4206253;28;19924;-70
2021/11/15 01:35:38;;;;;;;;;;;15.80;82.80;;;;;;4205826;28;19916;-70
2021/11/15 01:37:42;;;;;;;;;;;15.80;82.70;;;;;;4205424;28;19916;-69
2021/11/15 01:39:45;;;;;;;;;;;15.80;82.80;;;;;;4206295;28;19920;-69
2021/11/15 01:41:48;;;;;;;;;;;15.80;82.90;;;;;;4205841;28;19916;-69
2021/11/15 01:43:52;;;;;;;;;;;15.80;82.80;;;;;;4206171;28;19961;-70
2021/11/15 01:45:55;;;;;;;;;;;15.80;82.80;;;;;;4205973;28;19970;-70
2021/11/15 01:47:59;;;;;;;;;;;15.80;82.80;;;;;;4206060;28;19921;-70
2021/11/15 01:50:02;;;;;;;;;;;15.80;82.80;;;;;;4206232;28;19922;-70
2021/11/15 01:52:05;;;;;;;;;;;15.70;82.80;;;;;;4206085;28;20147;-70
2021/11/15 01:54:08;;;;;;;;;;;15.70;82.90;;;;;;4206201;28;20208;-70
2021/11/15 01:56:11;;;;;;;;;;;15.70;82.80;;;;;;4188652;28;19923;-70
2021/11/15 01:58:14;;;;;;;;;;;15.70;82.80;;;;;;4206209;28;19916;-70
2021/11/15 02:00:20;;;;;;;;;;;15.70;82.70;;;;;;4206657;28;19954;-70
2021/11/15 02:02:26;;;;;;;;;;;15.70;82.60;;;;;;4206183;28;19920;-69
2021/11/15 02:04:29;;;;;;;;;;;15.70;82.70;;;;;;4205925;28;19977;-70
2021/11/15 02:06:32;;;;;;;;;;;15.70;82.60;;;;;;4205796;28;19924;-70
2021/11/15 02:08:34;;;;;;;;;;;15.70;82.60;;;;;;4205666;28;19924;-70
2021/11/15 02:10:37;;;;;;;;;;;15.70;82.60;;;;;;4205965;28;19962;-69
2021/11/15 02:12:40;;;;;;;;;;;15.70;82.60;;;;;;4205314;28;19931;-70
2021/11/15 02:14:43;;;;;;;;;;;15.70;82.70;;;;;;4205552;28;19916;-71
2021/11/15 02:16:47;;;;;;;;;;;15.70;82.60;;;;;;4205330;28;19925;-69
2021/11/15 02:18:50;;;;;;;;;;;15.60;82.60;;;;;;4187834;28;19967;-68
2021/11/15 02:20:55;;;;;;;;;;;15.60;82.70;;;;;;4205751;28;19916;-70
2021/11/15 02:22:58;;;;;;;;;;;15.60;82.70;;;;;;4205522;28;19917;-70
2021/11/15 02:25:02;;;;;;;;;;;15.60;82.60;;;;;;4205507;28;19920;-69
2021/11/15 02:27:05;;;;;;;;;;;15.60;82.40;;;;;;4205366;28;19928;-69
2021/11/15 02:29:08;;;;;;;;;;;15.60;82.60;;;;;;4205444;28;20761;-70
2021/11/15 02:31:11;;;;;;;;;;;15.60;82.40;;;;;;4205332;28;19923;-70
2021/11/15 02:33:14;;;;;;;;;;;15.60;82.40;;;;;;4187606;28;20147;-70
2021/11/15 02:35:17;;;;;;;;;;;15.60;82.20;;;;;;4205192;28;19942;-71
2021/11/15 02:37:22;;;;;;;;;;;15.60;82.10;;;;;;4205090;28;19917;-71
2021/11/15 02:39:25;;;;;;;;;;;15.60;82.30;;;;;;4205177;28;19923;-71
2021/11/15 02:41:28;;;;;;;;;;;15.60;82.00;;;;;;4205582;28;19922;-69
2021/11/15 02:43:32;;;;;;;;;;;15.60;82.50;;;;;;4205173;28;20204;-68
2021/11/15 02:45:35;;;;;;;;;;;15.60;82.40;;;;;;4205459;28;19954;-71
2021/11/15 02:47:38;;;;;;;;;;;15.60;82.40;;;;;;4205391;28;20250;-70
2021/11/15 02:49:41;;;;;;;;;;;15.60;82.30;;;;;;4201543;28;19916;-70
2021/11/15 02:51:44;;;;;;;;;;;15.60;82.30;;;;;;4205011;28;19916;-70
2021/11/15 02:53:48;;;;;;;;;;;15.60;82.10;;;;;;4205319;28;19954;-71
2021/11/15 02:55:50;;;;;;;;;;;15.50;82.20;;;;;;4205004;28;19916;-69
2021/11/15 02:57:53;;;;;;;;;;;15.50;82.20;;;;;;4204883;28;20124;-69
2021/11/15 02:59:56;;;;;;;;;;;15.50;82.10;;;;;;4205019;28;19928;-69
2021/11/15 03:01:59;;;;;;;;;;;15.50;82.10;;;;;;4204967;28;19916;-70
2021/11/15 03:04:02;;;;;;;;;;;15.50;82.20;;;;;;4187396;28;19917;-70
2021/11/15 03:06:04;;;;;;;;;;;15.50;82.10;;;;;;4187518;28;20148;-69
2021/11/15 03:08:08;;;;;;;;;;;15.50;82.10;;;;;;4205054;28;19923;-70
2021/11/15 03:10:13;;;;;;;;;;;15.50;82.10;;;;;;4203902;28;19920;-70
2021/11/15 03:12:15;;;;;;;;;;;15.50;82.10;;;;;;4205127;28;19917;-70
2021/11/15 03:14:18;;;;;;;;;;;15.50;82.00;;;;;;4205309;28;19973;-69
2021/11/15 03:16:21;;;;;;;;;;;15.50;81.90;;;;;;4205368;28;19961;-73
2021/11/15 03:18:24;;;;;;;;;;;15.50;82.00;;;;;;4204740;28;20144;-69
2021/11/15 03:20:28;;;;;;;;;;;15.40;82.00;;;;;;4204699;28;20140;-70
2021/11/15 03:22:30;;;;;;;;;;;15.50;82.10;;;;;;4204875;28;20112;-70
2021/11/15 03:24:33;;;;;;;;;;;15.40;82.00;;;;;;4204611;28;20082;-69
2021/11/15 03:26:37;;;;;;;;;;;15.50;82.00;;;;;;4205240;28;19916;-70
2021/11/15 03:28:42;;;;;;;;;;;15.50;81.90;;;;;;4205427;28;19920;-70
2021/11/15 03:30:48;;;;;;;;;;;15.50;82.00;;;;;;4205506;28;19925;-69
2021/11/15 03:32:51;;;;;;;;;;;15.40;81.90;;;;;;4188648;28;19938;-70
2021/11/15 03:34:54;;;;;;;;;;;15.50;81.60;;;;;;4195758;28;20138;-70
2021/11/15 03:36:57;;;;;;;;;;;15.40;81.80;;;;;;4204479;28;19920;-69
2021/11/15 03:39:00;;;;;;;;;;;15.40;81.70;;;;;;4204895;28;19917;-71
2021/11/15 03:41:03;;;;;;;;;;;15.40;81.80;;;;;;4204662;28;19917;-70
2021/11/15 03:43:08;;;;;;;;;;;15.40;81.80;;;;;;4205009;28;19924;-70
2021/11/15 03:45:11;;;;;;;;;;;15.40;81.70;;;;;;4204565;28;19931;-71
2021/11/15 03:47:14;;;;;;;;;;;15.40;81.90;;;;;;4204614;28;19916;-69
2021/11/15 03:49:17;;;;;;;;;;;15.40;81.60;;;;;;4204596;28;19954;-70
2021/11/15 03:51:20;;;;;;;;;;;15.40;81.80;;;;;;4204784;28;19916;-69
2021/11/15 03:53:27;;;;;;;;;;;15.40;81.80;;;;;;4204804;28;19920;-70
2021/11/15 03:55:30;;;;;;;;;;;15.40;81.90;;;;;;4204626;28;19916;-70
2021/11/15 03:57:33;;;;;;;;;;;15.40;81.70;;;;;;4204472;28;19923;-70
2021/11/15 03:59:37;;;;;;;;;;;15.40;81.80;;;;;;4204466;28;19954;-70
2021/11/15 04:01:40;;;;;;;;;;;15.40;81.50;;;;;;4188295;28;19916;-69
2021/11/15 04:03:44;;;;;;;;;;;15.30;81.60;;;;;;4207472;28;19916;-70
2021/11/15 04:05:53;;;;;;;;;;;15.30;81.50;;;;;;4207609;28;19924;-71
2021/11/15 04:07:56;;;;;;;;;;;15.30;81.50;;;;;;4207857;28;19916;-70
2021/11/15 04:10:00;;;;;;;;;;;15.40;81.60;;;;;;4207524;28;19940;-69
2021/11/15 04:12:03;;;;;;;;;;;15.30;81.20;;;;;;4207615;28;19920;-70
2021/11/15 04:14:07;;;;;;;;;;;15.40;81.60;;;;;;4207860;28;20154;-71
2021/11/15 04:16:13;;;;;;;;;;;15.40;81.50;;;;;;4208000;28;19930;-71
2021/11/15 04:18:21;;;;;;;;;;;15.40;81.20;;;;;;4190033;28;19931;-70
2021/11/15 04:20:25;;;;;;;;;;;15.50;81.20;;;;;;4207746;28;19916;-70
2021/11/15 04:22:28;;;;;;;;;;;15.50;81.30;;;;;;4207270;28;19916;-70
2021/11/15 04:24:31;;;;;;;;;;;15.50;80.90;;;;;;4207786;28;20042;-70
2021/11/15 04:26:34;;;;;;;;;;;15.50;81.10;;;;;;4207422;28;19961;-70
2021/11/15 04:28:36;;;;;;;;;;;15.40;81.10;;;;;;4207625;28;19920;-70
2021/11/15 04:30:39;;;;;;;;;;;15.40;80.80;;;;;;4207380;28;19917;-70
2021/11/15 04:32:44;;;;;;;;;;;15.40;80.90;;;;;;4189811;28;19995;-70
2021/11/15 04:34:46;;;;;;;;;;;15.40;81.20;;;;;;4207029;28;19916;-70
2021/11/15 04:36:49;;;;;;;;;;;15.40;81.20;;;;;;4206803;28;19917;-70
2021/11/15 04:38:52;;;;;;;;;;;15.40;80.90;;;;;;4207287;28;19923;-70
2021/11/15 04:40:54;;;;;;;;;;;15.30;81.20;;;;;;4189804;28;20152;-70
2021/11/15 04:42:57;;;;;;;;;;;15.30;81.00;;;;;;4206935;28;19937;-70
2021/11/15 04:45:00;;;;;;;;;;;15.30;80.80;;;;;;4207123;28;20222;-70
2021/11/15 04:47:03;;;;;;;;;;;15.30;81.00;;;;;;4206903;28;19920;-70
2021/11/15 04:49:08;;;;;;;;;;;15.30;80.90;;;;;;4196301;28;19916;-70
2021/11/15 04:51:11;;;;;;;;;;;15.30;80.60;;;;;;4206843;28;19917;-70
2021/11/15 04:53:13;;;;;;;;;;;15.30;81.00;;;;;;4206818;28;19916;-70
2021/11/15 04:55:17;;;;;;;;;;;15.20;80.90;;;;;;4207161;28;19920;-70
2021/11/15 04:57:20;;;;;;;;;;;15.20;80.70;;;;;;4206881;28;19916;-69
2021/11/15 04:59:23;;;;;;;;;;;15.20;80.90;;;;;;4207204;28;19979;-71
2021/11/15 05:01:25;;;;;;;;;;;15.20;80.80;;;;;;4207094;28;19916;-71
2021/11/15 05:03:29;;;;;;;;;;;15.20;80.60;;;;;;4207140;28;20138;-70
2021/11/15 05:05:34;;;;;;;;;;;15.20;81.00;;;;;;4206611;28;20228;-70
2021/11/15 05:07:37;;;;;;;;;;;15.20;80.80;;;;;;4206763;28;19916;-70
2021/11/15 05:09:39;;;;;;;;;;;15.20;81.00;;;;;;4206641;28;19954;-70
2021/11/15 05:11:47;;;;;;;;;;;15.20;80.80;;;;;;4206931;28;20196;-70
2021/11/15 05:13:50;;;;;;;;;;;15.20;80.90;;;;;;4205094;28;19916;-70
2021/11/15 05:15:53;;;;;;;;;;;15.20;80.50;;;;;;4206639;28;19938;-70
2021/11/15 05:17:56;;;;;;;;;;;15.20;80.90;;;;;;4206353;28;19916;-69
2021/11/15 05:19:59;;;;;;;;;;;15.10;81.00;;;;;;4206474;28;19922;-69
2021/11/15 05:22:03;;;;;;;;;;;15.10;80.90;;;;;;4206742;28;19916;-70
2021/11/15 05:24:06;;;;;;;;;;;15.20;80.60;;;;;;4206326;28;20105;-70
2021/11/15 05:26:09;;;;;;;;;;;15.10;80.90;;;;;;4206486;28;19926;-70
2021/11/15 05:28:13;;;;;;;;;;;15.10;80.90;;;;;;4206436;28;20233;-72
2021/11/15 05:30:16;;;;;;;;;;;15.10;80.70;;;;;;4206236;28;19917;-69
2021/11/15 05:32:19;;;;;;;;;;;15.10;80.30;;;;;;4206329;28;20241;-70
2021/11/15 05:34:22;;;;;;;;;;;15.10;80.90;;;;;;4205912;28;19962;-70
2021/11/15 05:36:24;;;;;;;;;;;15.10;80.90;;;;;;4206119;28;19931;-70
2021/11/15 05:38:28;;;;;;;;;;;15.10;80.80;;;;;;4205997;28;19920;-70
2021/11/15 05:40:31;;;;;;;;;;;15.10;80.00;;;;;;4206325;28;19916;-71
2021/11/15 05:42:34;;;;;;;;;;;15.00;80.60;;;;;;4206524;28;20369;-70
2021/11/15 05:44:37;;;;;;;;;;;15.00;80.60;;;;;;4206732;28;20070;-71
2021/11/15 05:46:40;;;;;;;;;;;15.00;80.50;;;;;;4206770;28;19923;-70
2021/11/15 05:48:43;;;;;;;;;;;15.00;80.60;;;;;;4206044;28;19916;-70
2021/11/15 05:50:46;;;;;;;;;;;15.00;80.80;;;;;;4188638;28;19916;-71
2021/11/15 05:52:49;;;;;;;;;;;15.00;80.40;;;;;;4206354;28;19923;-69
2021/11/15 05:54:53;;;;;;;;;;;15.00;80.60;;;;;;4206053;28;19916;-70
2021/11/15 05:56:56;;;;;;;;;;;15.00;80.60;;;;;;4206080;28;20291;-69
2021/11/15 05:58:59;;;;;;;;;;;15.00;80.80;;;;;;4205721;28;19916;-68
2021/11/15 06:01:03;;;;;;;;;;;15.00;80.70;;;;;;4205636;28;19917;-70
2021/11/15 06:03:06;;;;;;;;;;;15.00;80.80;;;;;;4206089;28;20033;-69
2021/11/15 06:05:09;;;;;;;;;;;15.00;80.50;;;;;;4205752;28;19917;-70
2021/11/15 06:07:12;;;;;;;;;;;15.00;80.70;;;;;;4205834;28;19938;-70
2021/11/15 06:09:14;;;;;;;;;;;15.00;80.80;;;;;;4188465;28;19920;-70
2021/11/15 06:11:19;;;;;;;;;;;14.90;80.70;;;;;;4205595;28;19916;-70
2021/11/15 06:13:22;;;;;;;;;;;14.90;80.80;;;;;;4205646;28;19924;-71
2021/11/15 06:15:25;;;;;;;;;;;14.90;80.80;;;;;;4188008;28;19924;-70
2021/11/15 06:17:28;;;;;;;;;;;14.90;80.70;;;;;;4205420;28;19985;-69
2021/11/15 06:19:30;;;;;;;;;;;14.90;80.70;;;;;;4188303;28;19963;-69
2021/11/15 06:21:33;;;;;;;;;;;14.90;80.70;;;;;;4205297;28;20143;-69
2021/11/15 06:23:36;;;;;;;;;;;15.00;80.60;;;;;;4205517;28;19922;-70
2021/11/15 06:25:38;;;;;;;;;;;14.90;80.70;;;;;;4205275;28;19921;-70
2021/11/15 06:27:43;;;;;;;;;;;14.90;80.40;;;;;;4205664;28;19953;-70
2021/11/15 06:29:46;;;;;;;;;;;14.90;80.80;;;;;;4205701;28;20112;-69
2021/11/15 06:31:50;;;;;;;;;;;14.90;80.70;;;;;;4205668;28;19917;-70
2021/11/15 06:33:52;;;;;;;;;;;14.90;80.60;;;;;;4189010;28;19954;-70
2021/11/15 06:35:55;;;;;;;;;;;14.90;80.70;;;;;;4201580;28;19916;-70
2021/11/15 06:37:58;;;;;;;;;;;14.90;80.70;;;;;;4205394;28;19916;-70
2021/11/15 06:40:01;;;;;;;;;;;14.90;80.80;;;;;;4205192;28;19916;-70
2021/11/15 06:42:04;;;;;;;;;;;14.90;80.70;;;;;;4205171;28;19917;-70
2021/11/15 06:44:08;;;;;;;;;;;14.90;80.80;;;;;;4205099;28;20086;-70
2021/11/15 06:46:11;;;;;;;;;;;14.90;80.90;;;;;;4205199;28;20127;-72
2021/11/15 06:48:14;;;;;;;;;;;14.90;80.90;;;;;;4204996;28;19962;-69
2021/11/15 06:50:17;;;;;;;;;;;14.90;80.30;;;;;;4205206;28;19922;-69
2021/11/15 06:52:20;;;;;;;;;;;14.90;80.90;;;;;;4205070;28;19917;-69
2021/11/15 06:54:23;;;;;;;;;;;14.80;80.70;;;;;;4204930;28;19917;-70
2021/11/15 06:56:26;;;;;;;;;;;14.90;80.50;;;;;;4205178;28;19923;-69
2021/11/15 06:58:28;;;;;;;;;;;14.80;80.70;;;;;;4205279;28;20188;-70
2021/11/15 07:00:32;;;;;;;;;;;14.90;80.70;;;;;;4205280;28;20234;-69
2021/11/15 07:02:36;;;;;;;;;;;14.80;80.70;;;;;;4204813;28;19917;-69
2021/11/15 07:04:39;;;;;;;;;;;14.80;80.70;;;;;;4205164;28;19916;-70
2021/11/15 07:06:43;;;;;;;;;;;14.80;80.70;;;;;;4205057;28;19916;-70
2021/11/15 07:08:45;;;;;;;;;;;14.80;80.70;;;;;;4194329;28;19916;-70
2021/11/15 07:10:48;;;;;;;;;;;14.80;80.50;;;;;;4205246;28;19956;-71
2021/11/15 07:12:51;;;;;;;;;;;14.80;80.60;;;;;;4205273;28;19917;-71
2021/11/15 07:14:54;;;;;;;;;;;14.80;80.70;;;;;;4205748;28;19916;-70
2021/11/15 07:16:58;;;;;;;;;;;14.80;80.60;;;;;;4187716;28;19952;-69
2021/11/15 07:19:03;;;;;;;;;;;14.80;80.50;;;;;;4204952;28;19923;-71
2021/11/15 07:21:05;;;;;;;;;;;14.80;80.70;;;;;;4205290;28;19924;-70
2021/11/15 07:23:08;;;;;;;;;;;14.80;80.70;;;;;;4204604;28;19950;-69
2021/11/15 07:25:11;;;;;;;;;;;14.80;80.70;;;;;;4205021;28;19920;-69
2021/11/15 07:27:14;;;;;;;;;;;14.80;80.70;;;;;;4204933;28;20018;-70
2021/11/15 07:29:17;;;;;;;;;;;14.80;80.70;;;;;;4204959;28;20201;-70
2021/11/15 07:31:19;;;;;;;;;;;14.80;80.80;;;;;;4205069;28;19928;-69
2021/11/15 07:33:25;;;;;;;;;;;14.80;80.90;;;;;;4204626;28;19923;-70
2021/11/15 07:35:28;;;;;;;;;;;14.80;80.70;;;;;;4204388;28;19916;-70
2021/11/15 07:37:31;;;;;;;;;;;14.80;80.50;;;;;;4207830;28;20108;-70
2021/11/15 07:39:41;;;;;;;;;;;14.80;80.60;;;;;;4208296;28;19954;-70
2021/11/15 07:41:45;;;;;;;;;;;14.80;80.30;;;;;;4208163;28;19916;-70
2021/11/15 07:43:47;;;;;;;;;;;14.80;80.70;;;;;;4208345;28;19953;-70
2021/11/15 07:45:50;;;;;;;;;;;14.70;80.60;;;;;;4208239;28;19942;-70
2021/11/15 07:47:53;;;;;;;;;;;14.70;80.30;;;;;;4208034;28;19922;-70
2021/11/15 07:49:57;;;;;;;;;;;14.70;80.30;;;;;;4208612;28;19920;-70
2021/11/15 07:52:00;;;;;;;;;;;14.80;80.40;;;;;;4208923;28;19917;-70
2021/11/15 07:54:03;;;;;;;;;;;14.70;80.60;;;;;;4208264;28;20121;-69
2021/11/15 07:56:07;;;;;;;;;;;14.70;80.70;;;;;;4207650;28;19923;-71
2021/11/15 07:58:11;;;;;;;;;;;14.70;82.00;;;;;;4207879;28;19916;-71
2021/11/15 08:00:16;;;;;;;;;;;14.80;80.60;;;;;;4207525;28;19920;-71
2021/11/15 08:02:18;;;;;;;;;;;14.80;80.20;;;;;;4208102;28;19924;-71
2021/11/15 08:04:21;;;;;;;;;;;14.80;80.00;;;;;;4208054;28;19922;-72
2021/11/15 08:06:25;;;;;;;;;;;14.80;79.80;;;;;;4208032;28;20238;-71
2021/11/15 08:08:28;;;;;;;;;;;14.80;79.80;;;;;;4207580;28;19936;-71
2021/11/15 08:10:31;;;;;;;;;;;14.90;79.80;;;;;;4207857;28;20204;-71
2021/11/15 08:12:35;;;;;;;;;;;14.80;79.70;;;;;;4207839;28;19978;-71
2021/11/15 08:14:39;;;;;;;;;;;14.80;79.70;;;;;;4207798;28;19969;-71
2021/11/15 08:16:42;;;;;;;;;;;14.80;79.70;;;;;;4206199;28;19916;-70
2021/11/15 08:18:45;;;;;;;;;;;14.80;79.60;;;;;;4190401;28;19921;-71
2021/11/15 08:20:48;;;;;;;;;;;14.80;79.60;;;;;;4205809;28;19916;-71
2021/11/15 08:22:53;;;;;;;;;;;14.80;79.50;;;;;;4190181;28;19920;-71
2021/11/15 08:25:34;;;;;;;;;;;14.80;79.60;;;;;;4206874;28;20159;-71
2021/11/15 08:27:36;;;;;;;;;;;14.80;80.70;;;;;;4204444;28;19970;-71
2021/11/15 08:29:43;;;;;;;;;;;14.90;80.20;;;;;;4197744;28;19924;-71
2021/11/15 08:31:48;;;;;;;;;;;14.90;80.10;;;;;;4207695;28;19938;-71
2021/11/15 08:33:52;;;;;;;;;;;14.90;80.00;;;;;;4207694;28;20219;-71
2021/11/15 08:35:56;;;;;;;;;;;15.00;79.90;;;;;;4207051;28;19920;-71
2021/11/15 08:38:21;;;;;;;;;;;14.90;79.60;;;;;;4207415;28;19916;-71
2021/11/15 08:40:23;;;;;;;;;;;15.00;79.60;;;;;;4205879;28;19920;-71
2021/11/15 08:42:26;;;;;;;;;;;15.10;79.40;;;;;;4204425;28;20215;-70
2021/11/15 08:44:29;;;;;;;;;;;15.10;79.40;;;;;;4204484;28;20135;-72
2021/11/15 08:46:32;;;;;;;;;;;15.10;79.40;;;;;;4205958;28;19938;-71
2021/11/15 08:48:36;;;;;;;;;;;15.10;79.30;;;;;;4189451;28;19925;-71
2021/11/15 08:50:39;;;;;;;;;;;15.10;79.20;;;;;;4206834;28;19954;-71
2021/11/15 08:52:42;;;;;;;;;;;15.10;79.20;;;;;;4189114;28;20026;-71
2021/11/15 08:54:51;;;;;;;;;;;15.10;79.30;;;;;;4206924;28;19962;-71
2021/11/15 08:56:54;;;;;;;;;;;15.10;79.60;;;;;;4202734;28;19921;-71
2021/11/15 08:59:15;;;;;;;;;;;15.10;79.60;;;;;;4205855;28;19924;-71
2021/11/15 09:01:18;;;;;;;;;;;15.10;79.70;;;;;;4206705;28;19936;-72
2021/11/15 09:03:21;;;;;;;;;;;15.10;79.80;;;;;;4206714;28;19932;-71
2021/11/15 09:05:24;;;;;;;;;;;15.10;80.00;;;;;;4206174;28;19951;-71
2021/11/15 09:07:27;;;;;;;;;;;15.10;80.00;;;;;;4206082;28;20146;-71
2021/11/15 09:09:30;;;;;;;;;;;15.10;80.10;;;;;;4206980;28;19916;-71
2021/11/15 09:11:34;;;;;;;;;;;15.10;80.10;;;;;;4205521;28;20155;-71
2021/11/15 09:13:38;;;;;;;;;;;15.10;80.20;;;;;;4206891;28;20204;-71
2021/11/15 09:15:41;;;;;;;;;;;15.10;80.20;;;;;;4206789;28;19954;-71
2021/11/15 09:17:44;;;;;;;;;;;15.10;80.20;;;;;;4206764;28;20103;-71
2021/11/15 09:19:46;;;;;;;;;;;15.10;80.30;;;;;;4189060;28;19916;-71
2021/11/15 09:21:50;;;;;;;;;;;15.10;80.30;;;;;;4205979;28;19936;-72
2021/11/15 09:23:53;;;;;;;;;;;15.10;80.20;;;;;;4206995;28;19939;-71
2021/11/15 09:25:56;;;;;;;;;;;15.20;80.10;;;;;;4207906;28;19916;-71
2021/11/15 09:28:00;;;;;;;;;;;15.10;80.10;;;;;;4190514;28;19917;-71
2021/11/15 09:30:04;;;;;;;;;;;15.10;80.10;;;;;;4205813;28;19954;-72
2021/11/15 09:32:07;;;;;;;;;;;15.10;80.20;;;;;;4205822;28;19923;-71
2021/11/15 09:34:10;;;;;;;;;;;15.20;80.30;;;;;;4206442;28;19946;-71
2021/11/15 09:36:12;;;;;;;;;;;15.20;80.30;;;;;;4206165;28;19920;-71
2021/11/15 09:38:18;;;;;;;;;;;15.20;80.30;;;;;;4202681;28;20397;-71
2021/11/15 09:40:20;;;;;;;;;;;15.20;80.30;;;;;;4206405;28;19920;-71
2021/11/15 09:42:23;;;;;;;;;;;15.20;80.20;;;;;;4204987;28;19920;-71
2021/11/15 09:44:28;;;;;;;;;;;15.20;80.30;;;;;;4206215;28;19916;-71
2021/11/15 09:46:31;;;;;;;;;;;15.20;80.30;;;;;;4206144;28;19916;-71
2021/11/15 09:48:35;;;;;;;;;;;15.20;80.20;;;;;;4206135;28;19928;-71
2021/11/15 09:50:38;;;;;;;;;;;15.30;80.50;;;;;;4204836;28;19932;-71
2021/11/15 09:52:41;;;;;;;;;;;15.30;80.50;;;;;;4205809;28;19936;-71
2021/11/15 09:54:45;;;;;;;;;;;15.40;80.20;;;;;;4206052;28;19961;-71
2021/11/15 09:57:10;;;;;;;;;;;15.40;80.10;;;;;;4181697;28;19916;-72
2021/11/15 09:59:13;;;;;;;;;;;15.40;80.00;;;;;;4210729;28;19939;-71
2021/11/15 10:01:17;;;;;;;;;;;15.50;79.80;;;;;;4210415;28;20227;-71
2021/11/15 10:03:20;;;;;;;;;;;15.50;79.80;;;;;;4196078;28;19916;-71
2021/11/15 10:05:23;;;;;;;;;;;15.50;79.70;;;;;;4214086;28;19924;-71
2021/11/15 10:07:35;;;;;;;;;;;15.50;80.00;;;;;;4208751;28;19932;-71
2021/11/15 10:09:39;;;;;;;;;;;15.50;79.70;;;;;;4210895;28;20077;-71
2021/11/15 10:11:43;;;;;;;;;;;15.50;79.00;;;;;;4207178;28;19925;-71
2021/11/15 10:13:46;;;;;;;;;;;15.60;78.80;;;;;;4209312;28;20353;-71
2021/11/15 10:15:51;;;;;;;;;;;15.50;78.60;;;;;;4206958;28;19916;-71
2021/11/15 10:17:55;;;;;;;;;;;15.50;78.50;;;;;;4206629;28;20248;-71
2021/11/15 10:19:58;;;;;;;;;;;15.50;78.50;;;;;;4205965;28;19920;-72
2021/11/15 10:22:03;;;;;;;;;;;15.50;78.50;;;;;;4205633;28;19916;-71
2021/11/15 10:24:07;;;;;;;;;;;15.50;78.60;;;;;;4208930;28;19917;-73
2021/11/15 10:26:12;;;;;;;;;;;15.50;78.60;;;;;;4190066;28;19925;-71
2021/11/15 10:28:20;;;;;;;;;;;15.50;78.60;;;;;;4207039;28;19953;-71
2021/11/15 10:30:33;;;;;;;;;;;15.50;78.60;;;;;;4216873;28;19916;-71
2021/11/15 10:32:42;;;;;;;;;;;15.50;78.70;;;;;;4206208;28;19924;-71
2021/11/15 10:34:49;;;;;;;;;;;15.50;78.70;;;;;;4217027;28;19920;-71
2021/11/15 10:36:56;;;;;;;;;;;15.40;78.60;;;;;;4189059;28;19923;-71
2021/11/15 10:38:58;;;;;;;;;;;15.40;78.60;;;;;;4209244;28;20219;-71
2021/11/15 10:41:09;;;;;;;;;;;15.50;78.70;;;;;;4216208;28;19948;-73
2021/11/15 10:43:12;;;;;;;;;;;15.40;78.70;;;;;;4205759;28;19916;-71
2021/11/15 10:45:16;;;;;;;;;;;15.40;78.70;;;;;;4200582;28;19963;-71
2021/11/15 10:47:24;;;;;;;;;;;15.40;78.80;;;;;;4189400;28;19916;-70
2021/11/15 10:49:27;;;;;;;;;;;15.40;78.80;;;;;;4200703;28;19917;-71
2021/11/15 10:51:44;;;;;;;;;;;15.40;78.80;;;;;;4213688;28;19961;-72
2021/11/15 10:54:01;;;;;;;;;;;15.40;78.90;;;;;;4207430;28;20142;-71
2021/11/15 10:56:06;;;;;;;;;;;15.40;78.90;;;;;;4217541;28;19922;-71
2021/11/15 10:58:14;;;;;;;;;;;15.40;78.80;;;;;;4204688;28;19926;-70
2021/11/15 11:00:22;;;;;;;;;;;15.40;78.90;;;;;;4211235;28;19916;-71
2021/11/15 11:02:26;;;;;;;;;;;15.50;79.00;;;;;;4207822;28;20142;-71
2021/11/15 11:04:34;;;;;;;;;;;15.40;79.00;;;;;;4204442;28;19934;-71
2021/11/15 11:06:52;;;;;;;;;;;15.40;78.90;;;;;;4210074;28;19981;-71
2021/11/15 11:08:56;;;;;;;;;;;15.40;79.00;;;;;;4221516;28;19922;-73
2021/11/15 11:11:03;;;;;;;;;;;15.40;79.20;;;;;;4210414;28;20279;-72
2021/11/15 11:13:06;;;;;;;;;;;15.40;79.30;;;;;;4220627;28;19980;-70
2021/11/15 11:15:18;;;;;;;;;;;15.30;79.20;;;;;;4218616;28;20103;-71
2021/11/15 11:17:20;;;;;;;;;;;15.30;79.40;;;;;;4212951;28;19922;-71
2021/11/15 11:19:47;;;;;;;;;;;15.30;79.30;;;;;;4221126;28;19969;-71
2021/11/15 11:22:36;;;;;;;;;;;15.30;79.40;;;;;;4210014;28;20143;-70
2021/11/15 11:24:35;;;;;;;;;;;15.30;79.40;;;;;;4218808;28;19969;-71
2021/11/15 11:26:39;;;;;;;;;;;15.30;79.50;;;;;;4209800;28;20192;-71
2021/11/15 11:28:42;;;;;;;;;;;15.30;79.60;;;;;;4221943;28;19915;-71
2021/11/15 11:30:45;;;;;;;;;;;15.30;79.50;;;;;;4218383;28;19916;-71
2021/11/15 11:32:51;;;;;;;;;;;15.20;79.50;;;;;;4213285;28;19922;-71
2021/11/15 11:34:56;;;;;;;;;;;15.20;80.10;;;;;;4222308;28;20183;-71
2021/11/15 11:36:59;;;;;;;;;;;15.20;79.70;;;;;;4214743;28;19916;-71
2021/11/15 11:39:05;;;;;;;;;;;15.10;79.60;;;;;;4223250;28;19916;-71
2021/11/15 11:41:09;;;;;;;;;;;15.20;79.70;;;;;;4219000;28;20082;-71
2021/11/15 11:43:12;;;;;;;;;;;15.20;79.70;;;;;;4213634;28;19969;-71
2021/11/15 11:45:15;;;;;;;;;;;15.20;79.70;;;;;;4204159;28;19917;-71
2021/11/15 11:47:19;;;;;;;;;;;15.10;79.70;;;;;;4209905;28;19923;-71
2021/11/15 11:49:24;;;;;;;;;;;15.10;79.70;;;;;;4221819;28;20226;-72
2021/11/15 11:51:27;;;;;;;;;;;15.10;79.80;;;;;;4216341;28;20327;-71
2021/11/15 11:53:31;;;;;;;;;;;15.10;79.70;;;;;;4196536;28;20196;-74
2021/11/15 11:55:34;;;;;;;;;;;15.10;79.80;;;;;;4205589;28;20308;-71
2021/11/15 11:57:38;;;;;;;;;;;15.10;79.90;;;;;;4216753;28;19920;-70
2021/11/15 11:59:57;;;;;;;;;;;15.10;79.90;;;;;;4205889;28;19923;-71
2021/11/15 12:02:02;;;;;;;;;;;15.10;79.90;;;;;;4209852;28;19969;-71